Time;durP1;ratioP1;P1;durP2;ratioP2;P2;SDS_P1;SDS_P2;PMS_P1;PMS_P2;Temp;Humidity;BMP_temperature;BMP_pressure;BME280_temperature;BME280_humidity;BME280_pressure;Samples;Min_cycle;Max_cycle;Signal;HPM_P1;HPM_P2
2023/11/07 00:02:12;;;;;;;6.00;3.10;;;;;;;20.37;45.42;101154.46;103332;1285;60615;-81
2023/11/07 00:04:41;;;;;;;5.30;2.90;;;;;;;20.37;45.42;101159.83;103608;1283;62322;-80
2023/11/07 00:07:07;;;;;;;6.30;3.00;;;;;;;20.37;45.34;101155.35;103337;1290;61094;-83
2023/11/07 00:09:33;;;;;;;5.70;3.10;;;;;;;20.36;45.42;101155.03;103502;1284;60885;-81
2023/11/07 00:11:59;;;;;;;5.40;2.90;;;;;;;20.37;45.46;101156.45;103410;1288;60570;-80
2023/11/07 00:14:26;;;;;;;6.50;3.20;;;;;;;20.37;45.27;101160.38;103517;1284;60583;-82
2023/11/07 00:16:52;;;;;;;7.50;3.20;;;;;;;20.36;45.39;101161.13;103561;1285;60579;-81
2023/11/07 00:19:18;;;;;;;5.90;3.40;;;;;;;20.37;45.42;101163.42;103492;1288;61324;-82
2023/11/07 00:21:45;;;;;;;5.90;3.20;;;;;;;20.37;45.41;101164.14;103398;1287;61100;-81
2023/11/07 00:24:10;;;;;;;6.90;3.50;;;;;;;20.36;45.35;101161.66;103733;1282;60664;-82
2023/11/07 00:26:37;;;;;;;6.30;3.30;;;;;;;20.36;45.28;101164.71;103515;1285;60937;-80
2023/11/07 00:29:03;;;;;;;6.90;3.10;;;;;;;20.37;45.26;101166.64;103454;1288;61640;-83
2023/11/07 00:31:29;;;;;;;5.90;3.00;;;;;;;20.36;45.30;101164.02;103464;1284;61020;-82
2023/11/07 00:33:54;;;;;;;8.00;3.70;;;;;;;20.36;45.38;101166.13;103568;1285;60576;-81
2023/11/07 00:36:20;;;;;;;6.20;3.30;;;;;;;20.36;45.39;101166.34;103643;1285;60488;-80
2023/11/07 00:38:46;;;;;;;4.90;2.60;;;;;;;20.36;45.23;101164.55;103396;1285;61809;-81
2023/11/07 00:41:13;;;;;;;8.80;3.50;;;;;;;20.36;45.47;101169.20;103362;1285;61023;-81
2023/11/07 00:43:39;;;;;;;5.80;2.90;;;;;;;20.36;45.30;101175.25;103467;1284;60477;-81
2023/11/07 00:46:07;;;;;;;6.80;3.10;;;;;;;20.36;45.39;101177.42;103496;1289;60565;-81
2023/11/07 00:48:33;;;;;;;10.00;3.30;;;;;;;20.35;45.30;101174.59;103488;1288;60567;-82
2023/11/07 00:51:00;;;;;;;5.80;3.20;;;;;;;20.35;45.26;101177.10;103371;1285;61513;-82
2023/11/07 00:53:26;;;;;;;6.10;3.00;;;;;;;20.35;45.26;101178.16;103460;1283;60573;-82
2023/11/07 00:55:51;;;;;;;5.70;3.10;;;;;;;20.35;45.37;101181.94;103519;1289;60651;-81
2023/11/07 00:58:20;;;;;;;6.60;3.40;;;;;;;20.35;45.25;101179.80;103682;1285;60576;-81
2023/11/07 01:00:46;;;;;;;;;;;;;;;20.35;45.15;101183.55;103407;1288;72448;-82
2023/11/07 01:03:12;;;;;;;5.70;3.20;;;;;;;20.32;45.32;101179.78;103403;1287;60704;-82
2023/11/07 01:05:38;;;;;;;5.70;3.00;;;;;;;20.33;45.27;101179.73;103527;1283;61739;-83
2023/11/07 01:08:04;;;;;;;7.50;3.30;;;;;;;20.33;45.32;101177.77;103472;1290;60466;-82
2023/11/07 01:10:30;;;;;;;5.30;2.80;;;;;;;20.33;45.22;101181.88;103765;1285;60488;-83
2023/11/07 01:12:56;;;;;;;6.10;2.90;;;;;;;20.33;45.32;101182.21;103466;1285;60527;-82
2023/11/07 01:15:22;;;;;;;6.80;3.40;;;;;;;20.33;45.09;101187.75;103552;1288;60580;-81
2023/11/07 01:17:47;;;;;;;6.10;3.20;;;;;;;20.33;45.32;101187.93;103589;1287;60574;-80
2023/11/07 01:20:13;;;;;;;6.80;3.50;;;;;;;20.33;45.16;101189.91;103367;1284;61800;-82
2023/11/07 01:22:39;;;;;;;6.40;3.40;;;;;;;20.33;45.28;101193.14;103449;1287;60590;-81
2023/11/07 01:25:05;;;;;;;6.30;3.20;;;;;;;20.33;45.08;101193.14;103464;1284;60526;-81
2023/11/07 01:27:31;;;;;;;6.70;3.10;;;;;;;20.34;45.15;101200.08;103429;1285;60444;-82
2023/11/07 01:29:58;;;;;;;6.10;3.20;;;;;;;20.33;45.12;101198.66;103573;1288;61665;-82
2023/11/07 01:32:23;;;;;;;5.60;3.30;;;;;;;20.33;45.23;101201.16;103775;1282;60511;-81
2023/11/07 01:34:49;;;;;;;5.80;3.00;;;;;;;20.33;45.14;101200.98;103659;1285;60584;-83
2023/11/07 01:37:15;;;;;;;7.70;3.50;;;;;;;20.34;45.05;101199.38;103364;1285;73618;-82
2023/11/07 01:39:41;;;;;;;6.10;3.20;;;;;;;20.33;45.03;101202.42;103384;1285;60498;-81
2023/11/07 01:42:08;;;;;;;6.30;3.10;;;;;;;20.33;45.04;101199.36;103564;1288;61749;-81
2023/11/07 01:44:47;;;;;;;6.40;2.90;;;;;;;20.33;45.22;101200.65;103421;1285;60501;-81
2023/11/07 01:47:13;;;;;;;6.20;3.30;;;;;;;20.33;45.17;101200.30;103573;1287;73893;-82
2023/11/07 01:49:39;;;;;;;6.80;3.00;;;;;;;20.33;45.17;101199.42;103347;1285;60592;-83
2023/11/07 01:52:05;;;;;;;6.10;3.10;;;;;;;20.33;45.09;101199.08;103372;1287;60563;-80
2023/11/07 01:54:31;;;;;;;7.10;3.30;;;;;;;20.32;45.10;101197.14;103353;1284;61196;-83
2023/11/07 01:56:57;;;;;;;6.30;3.20;;;;;;;20.32;45.03;101197.69;103242;1285;61014;-82
2023/11/07 01:59:23;;;;;;;5.70;3.20;;;;;;;20.32;45.05;101201.09;103357;1288;61152;-82
2023/11/07 02:01:48;;;;;;;6.80;3.10;;;;;;;20.32;45.08;101201.45;103372;1290;60578;-81
2023/11/07 02:04:14;;;;;;;7.00;3.40;;;;;;;20.31;44.97;101203.08;103384;1285;60643;-82
2023/11/07 02:06:42;;;;;;;6.80;3.20;;;;;;;20.32;45.03;101203.42;103274;1285;71545;-83
2023/11/07 02:09:08;;;;;;;6.00;2.90;;;;;;;20.32;45.04;101204.85;103295;1290;73362;-81
2023/11/07 02:11:34;;;;;;;6.00;3.00;;;;;;;20.31;45.00;101209.54;103255;1284;61629;-82
2023/11/07 02:14:00;;;;;;;5.80;2.80;;;;;;;20.31;45.10;101215.23;103241;1290;60559;-82
2023/11/07 02:16:28;;;;;;;5.70;3.00;;;;;;;20.31;45.01;101221.14;103374;1287;60666;-82
2023/11/07 02:18:53;;;;;;;6.20;2.90;;;;;;;20.31;44.99;101223.83;103434;1287;60593;-81
2023/11/07 02:21:21;;;;;;;7.00;3.10;;;;;;;20.31;44.96;101231.35;103510;1285;60510;-82
2023/11/07 02:23:47;;;;;;;6.50;3.20;;;;;;;20.31;45.04;101229.94;103427;1284;60652;-82
2023/11/07 02:26:13;;;;;;;7.50;3.50;;;;;;;20.31;44.98;101231.71;103531;1285;60581;-81
2023/11/07 02:29:02;;;;;;;5.70;2.90;;;;;;;20.31;45.07;101233.15;103326;1285;60675;-83
2023/11/07 02:31:27;;;;;;;6.00;3.20;;;;;;;20.30;44.91;101228.54;103108;1288;61293;-81
2023/11/07 02:33:54;;;;;;;6.60;2.60;;;;;;;20.29;45.02;101232.16;103017;1293;61612;-81
2023/11/07 02:36:20;;;;;;;6.20;3.30;;;;;;;20.30;45.15;101233.92;103122;1288;61025;-82
2023/11/07 02:38:45;;;;;;;5.30;2.90;;;;;;;20.30;44.89;101233.55;103017;1293;61650;-82
2023/11/07 02:41:11;;;;;;;7.40;3.10;;;;;;;20.30;44.97;101234.98;103008;1293;60831;-81
2023/11/07 02:43:37;;;;;;;6.30;2.90;;;;;;;20.30;44.93;101232.66;103112;1287;60599;-81
2023/11/07 02:46:04;;;;;;;6.10;2.90;;;;;;;20.30;44.87;101234.45;103040;1291;61092;-81
2023/11/07 02:48:30;;;;;;;7.20;3.30;;;;;;;20.30;44.91;101233.23;103115;1293;60731;-83
2023/11/07 02:50:55;;;;;;;5.30;2.90;;;;;;;20.29;44.97;101236.63;103052;1289;60684;-81
2023/11/07 02:53:21;;;;;;;8.00;3.00;;;;;;;20.29;44.95;101245.21;103080;1288;60656;-81
2023/11/07 02:55:47;;;;;;;7.40;3.20;;;;;;;20.29;45.01;101246.48;103148;1288;61246;-80
2023/11/07 02:58:13;;;;;;;5.50;3.10;;;;;;;20.29;44.90;101243.61;103122;1288;60959;-83
2023/11/07 03:00:39;;;;;;;5.30;2.80;;;;;;;20.29;44.95;101244.87;103144;1293;60649;-82
2023/11/07 03:03:06;;;;;;;5.90;3.10;;;;;;;20.29;44.92;101247.19;103111;1288;60657;-81
2023/11/07 03:05:31;;;;;;;6.00;3.10;;;;;;;20.29;44.88;101251.14;103101;1287;60577;-82
2023/11/07 03:07:57;;;;;;;7.40;3.30;;;;;;;20.28;44.91;101253.84;103082;1291;60657;-80
2023/11/07 03:10:23;;;;;;;7.30;3.10;;;;;;;20.29;45.00;101257.76;103393;1285;60850;-81
2023/11/07 03:12:49;;;;;;;6.70;3.20;;;;;;;20.28;44.93;101258.14;103424;1284;61044;-81
2023/11/07 03:15:15;;;;;;;5.30;2.70;;;;;;;20.28;44.74;101258.69;103323;1283;60932;-80
2023/11/07 03:17:41;;;;;;;5.30;3.10;;;;;;;20.28;44.95;101253.87;103560;1285;61683;-82
2023/11/07 03:20:09;;;;;;;8.60;2.90;;;;;;;20.28;44.71;101253.52;103262;1290;60678;-83
2023/11/07 03:22:35;;;;;;;6.70;3.20;;;;;;;20.28;44.88;101258.16;103406;1288;72668;-82
2023/11/07 03:25:01;;;;;;;7.00;3.40;;;;;;;20.28;44.75;101265.11;103348;1285;61207;-83
2023/11/07 03:27:26;;;;;;;5.60;3.00;;;;;;;20.28;44.84;101270.48;103394;1285;60528;-83
2023/11/07 03:29:52;;;;;;;7.20;3.30;;;;;;;20.27;44.87;101275.17;103241;1283;60563;-83
2023/11/07 03:32:18;;;;;;;7.50;3.30;;;;;;;20.28;44.87;101281.04;103378;1287;60602;-82
2023/11/07 03:34:44;;;;;;;7.20;3.30;;;;;;;20.28;44.84;101288.36;103238;1288;61065;-82
2023/11/07 03:37:09;;;;;;;6.10;2.80;;;;;;;20.28;44.80;101285.33;103318;1283;60527;-81
2023/11/07 03:39:35;;;;;;;5.80;3.00;;;;;;;20.28;44.68;101271.75;103392;1287;61212;-82
2023/11/07 03:42:01;;;;;;;7.20;3.40;;;;;;;20.28;44.77;101273.38;103374;1285;60669;-83
2023/11/07 03:44:29;;;;;;;6.50;3.40;;;;;;;20.27;44.90;101273.38;103255;1288;60637;-81
2023/11/07 03:46:55;;;;;;;6.30;3.40;;;;;;;20.28;44.75;101279.09;103406;1285;61445;-81
2023/11/07 03:49:21;;;;;;;5.50;3.00;;;;;;;20.26;44.80;101280.93;103379;1290;60519;-81
2023/11/07 03:51:48;;;;;;;5.30;3.10;;;;;;;20.27;44.86;101280.52;103309;1288;60496;-82
2023/11/07 03:54:14;;;;;;;7.20;3.60;;;;;;;20.27;44.80;101276.81;103392;1283;60670;-82
2023/11/07 03:56:40;;;;;;;5.60;3.10;;;;;;;20.27;44.84;101283.23;103402;1284;60586;-81
2023/11/07 03:59:07;;;;;;;7.50;3.60;;;;;;;20.27;44.80;101286.80;103373;1287;61082;-82
2023/11/07 04:01:37;;;;;;;5.90;2.90;;;;;;;20.27;44.92;101291.63;103339;1282;61380;-81
2023/11/07 04:04:03;;;;;;;7.70;3.30;;;;;;;20.27;44.85;101294.14;103403;1284;73782;-81
2023/11/07 04:06:30;;;;;;;7.90;3.60;;;;;;;20.26;44.84;101300.95;103341;1288;60477;-82
2023/11/07 04:08:57;;;;;;;7.70;3.10;;;;;;;20.26;44.81;101304.18;103420;1285;61556;-82
2023/11/07 04:11:22;;;;;;;7.30;3.10;;;;;;;20.26;44.72;101300.23;103376;1287;60944;-82
2023/11/07 04:13:50;;;;;;;6.10;3.10;;;;;;;20.27;44.75;101303.26;103304;1288;61173;-82
2023/11/07 04:16:16;;;;;;;8.70;3.90;;;;;;;20.27;44.79;101309.71;103240;1285;60537;-82
2023/11/07 04:18:43;;;;;;;7.80;3.30;;;;;;;20.27;44.68;101310.59;103276;1284;61909;-82
2023/11/07 04:21:10;;;;;;;6.10;3.30;;;;;;;20.27;44.66;101308.80;103313;1285;71383;-81
2023/11/07 04:23:36;;;;;;;6.50;3.60;;;;;;;20.26;44.63;101307.95;103270;1288;60689;-81
2023/11/07 04:26:02;;;;;;;6.70;3.30;;;;;;;20.26;44.73;101312.60;103354;1285;60609;-84
2023/11/07 04:28:31;;;;;;;8.20;3.70;;;;;;;20.26;44.73;101318.30;103306;1289;60532;-80
2023/11/07 04:30:59;;;;;;;7.50;3.80;;;;;;;20.26;44.49;101327.08;103371;1285;72350;-82
2023/11/07 04:33:25;;;;;;;6.30;3.40;;;;;;;20.26;44.59;101326.02;103548;1287;73524;-83
2023/11/07 04:35:52;;;;;;;7.70;3.70;;;;;;;20.25;44.49;101323.94;103392;1288;60651;-83
2023/11/07 04:38:19;;;;;;;5.60;3.20;;;;;;;20.24;44.68;101317.33;103413;1285;60789;-82
2023/11/07 04:40:46;;;;;;;6.60;3.40;;;;;;;20.23;44.59;101318.11;103428;1287;72461;-83
2023/11/07 04:43:12;;;;;;;8.30;3.60;;;;;;;20.23;44.56;101314.92;103417;1287;73461;-83
2023/11/07 04:45:38;;;;;;;8.30;4.00;;;;;;;20.22;44.46;101317.14;103436;1285;60560;-81
2023/11/07 04:48:04;;;;;;;7.00;3.40;;;;;;;20.21;44.51;101316.30;103398;1283;61536;-85
2023/11/07 04:50:30;;;;;;;9.50;3.90;;;;;;;20.20;44.47;101313.88;103604;1283;60658;-83
2023/11/07 04:52:55;;;;;;;7.40;3.50;;;;;;;20.19;44.49;101314.27;103391;1283;60561;-82
2023/11/07 04:55:24;;;;;;;8.00;3.70;;;;;;;20.19;44.53;101323.59;103407;1287;60588;-84
2023/11/07 04:57:50;;;;;;;8.00;3.80;;;;;;;20.17;44.57;101326.71;103309;1285;60673;-83
2023/11/07 05:00:16;;;;;;;7.50;3.60;;;;;;;20.16;44.41;101330.00;103352;1289;60571;-82
2023/11/07 05:02:42;;;;;;;9.40;4.10;;;;;;;20.16;44.46;101329.30;103372;1287;60489;-83
2023/11/07 05:05:09;;;;;;;8.00;3.70;;;;;;;20.15;44.46;101329.17;103391;1285;60517;-82
2023/11/07 05:07:37;;;;;;;9.20;4.00;;;;;;;20.14;44.40;101331.38;103375;1285;61174;-81
2023/11/07 05:10:04;;;;;;;8.70;4.00;;;;;;;20.14;44.35;101334.44;103891;1287;60656;-84
2023/11/07 05:12:30;;;;;;;8.30;3.50;;;;;;;20.13;44.36;101334.47;103683;1287;74687;-83
2023/11/07 05:14:57;;;;;;;9.30;4.20;;;;;;;20.13;44.42;101333.94;103396;1285;61132;-82
2023/11/07 05:17:22;;;;;;;8.40;4.10;;;;;;;20.12;44.30;101338.27;103660;1288;60508;-83
2023/11/07 05:19:48;;;;;;;11.80;4.60;;;;;;;20.12;44.36;101340.59;103693;1287;60725;-82
2023/11/07 05:22:14;;;;;;;7.60;3.80;;;;;;;20.11;44.33;101343.83;103427;1288;60587;-82
2023/11/07 05:24:40;;;;;;;10.90;4.30;;;;;;;20.11;44.25;101341.91;104225;1283;60508;-82
2023/11/07 05:27:05;;;;;;;7.90;4.00;;;;;;;20.10;44.13;101341.95;104335;1287;61133;-82
2023/11/07 05:29:31;;;;;;;8.80;4.40;;;;;;;20.09;44.14;101344.52;103675;1285;61846;-82
2023/11/07 05:31:58;;;;;;;15.10;4.80;;;;;;;20.08;44.16;101349.77;103622;1288;60613;-82
2023/11/07 05:34:25;;;;;;;11.20;4.70;;;;;;;20.06;44.09;101356.28;103419;1285;60568;-83
2023/11/07 05:36:51;;;;;;;12.10;4.40;;;;;;;20.05;44.12;101368.89;103925;1283;60474;-82
2023/11/07 05:39:17;;;;;;;9.50;4.80;;;;;;;20.03;44.13;101378.63;103864;1287;60646;-81
2023/11/07 05:41:43;;;;;;;13.40;4.90;;;;;;;20.01;44.00;101381.23;103750;1288;61252;-81
2023/11/07 05:44:08;;;;;;;13.20;4.40;;;;;;;20.00;44.02;101385.93;104085;1288;60543;-80
2023/11/07 05:46:34;;;;;;;10.20;4.40;;;;;;;20.00;44.10;101385.26;104357;1283;60615;-81
2023/11/07 05:49:00;;;;;;;10.90;4.50;;;;;;;19.98;43.93;101383.57;104338;1285;60444;-80
2023/11/07 05:51:26;;;;;;;12.30;4.90;;;;;;;19.97;43.96;101385.77;104224;1285;60505;-81
2023/11/07 05:53:51;;;;;;;14.70;5.70;;;;;;;19.95;43.94;101390.16;104871;1285;72482;-81
2023/11/07 05:56:17;;;;;;;14.80;4.90;;;;;;;19.93;44.00;101392.59;104868;1283;60512;-81
2023/11/07 05:58:43;;;;;;;12.10;5.70;;;;;;;19.92;43.89;101398.92;104822;1283;60537;-81
2023/11/07 06:01:08;;;;;;;17.40;5.70;;;;;;;19.88;43.78;101403.05;105236;1285;60498;-81
2023/11/07 06:03:34;;;;;;;21.40;6.00;;;;;;;19.86;43.87;101403.90;105213;1285;61019;-81
2023/11/07 06:05:59;;;;;;;16.50;6.00;;;;;;;19.85;43.86;101403.92;105291;1285;60467;-82
2023/11/07 06:08:25;;;;;;;16.20;6.50;;;;;;;19.86;43.79;101395.86;105391;1287;60483;-83
2023/11/07 06:10:51;;;;;;;17.30;6.30;;;;;;;19.86;43.63;101396.40;104979;1283;60532;-81
2023/11/07 06:13:17;;;;;;;13.60;5.60;;;;;;;19.87;43.64;101402.25;105147;1288;61457;-81
2023/11/07 06:15:43;;;;;;;13.50;5.30;;;;;;;19.87;43.70;101400.80;105122;1283;60585;-81
2023/11/07 06:18:09;;;;;;;11.30;5.40;;;;;;;19.88;43.57;101406.79;104950;1285;59381;-81
2023/11/07 06:20:34;;;;;;;12.10;5.70;;;;;;;19.90;43.57;101412.73;105325;1285;60579;-81
2023/11/07 06:23:00;;;;;;;14.10;5.80;;;;;;;19.90;43.65;101417.22;105143;1283;60716;-81
2023/11/07 06:25:26;;;;;;;14.00;5.30;;;;;;;19.92;43.41;101423.40;105099;1283;60355;-81
2023/11/07 06:27:51;;;;;;;15.60;5.70;;;;;;;19.92;43.41;101421.59;105406;1287;60469;-81
2023/11/07 06:30:18;;;;;;;13.00;5.80;;;;;;;19.92;43.44;101419.45;104873;1285;60629;-81
2023/11/07 06:32:44;;;;;;;12.80;5.80;;;;;;;19.92;43.23;101421.60;104753;1286;59444;-81
2023/11/07 06:35:10;;;;;;;16.70;6.10;;;;;;;19.92;43.24;101423.04;105004;1288;60556;-80
2023/11/07 06:37:36;;;;;;;12.60;5.90;;;;;;;19.92;42.98;101425.52;104919;1288;61211;-80
2023/11/07 06:40:13;;;;;;;16.00;5.80;;;;;;;19.93;42.97;101422.09;104815;1287;61027;-80
2023/11/07 06:42:41;;;;;;;11.40;5.50;;;;;;;19.93;42.89;101417.24;104955;1285;60377;-80
2023/11/07 06:45:11;;;;;;;11.20;5.40;;;;;;;19.94;42.82;101418.09;105019;1287;60950;-80
2023/11/07 06:47:44;;;;;;;15.20;6.30;;;;;;;19.95;42.67;101419.48;105240;1287;72450;-80
2023/11/07 06:50:10;;;;;;;10.50;5.00;;;;;;;19.96;42.63;101428.53;105073;1286;74098;-80
2023/11/07 06:52:39;;;;;;;16.00;6.00;;;;;;;19.97;42.51;101431.54;105156;1287;60446;-80
2023/11/07 06:55:06;;;;;;;14.00;5.70;;;;;;;19.97;42.38;101430.59;105252;1283;60566;-81
2023/11/07 06:57:33;;;;;;;20.90;5.90;;;;;;;19.95;42.22;101431.42;105081;1285;60554;-81
2023/11/07 07:00:00;;;;;;;15.20;5.20;;;;;;;19.95;42.54;101430.18;105501;1288;72555;-81
2023/11/07 07:02:26;;;;;;;16.40;5.10;;;;;;;19.98;42.77;101433.42;105003;1288;60408;-81
2023/11/07 07:04:52;;;;;;;19.20;6.00;;;;;;;19.99;42.93;101431.40;105245;1282;62599;-82
2023/11/07 07:07:19;;;;;;;13.40;6.10;;;;;;;19.95;42.89;101433.23;105400;1288;60486;-81
2023/11/07 07:09:45;;;;;;;19.10;6.10;;;;;;;19.90;42.64;101441.19;105337;1289;59102;-81
2023/11/07 07:12:11;;;;;;;13.90;5.70;;;;;;;19.90;42.87;101439.17;105473;1288;60467;-80
2023/11/07 07:14:37;;;;;;;14.80;5.30;;;;;;;19.93;43.00;101438.90;105591;1286;60645;-80
2023/11/07 07:17:07;;;;;;;15.10;5.60;;;;;;;19.94;43.03;101440.95;105616;1283;58766;-81
2023/11/07 07:19:37;;;;;;;14.40;5.50;;;;;;;19.95;43.03;101441.06;105756;1283;73771;-80
2023/11/07 07:22:06;;;;;;;14.40;5.80;;;;;;;19.97;43.15;101438.48;106352;1284;58995;-80
2023/11/07 07:24:32;;;;;;;15.50;6.80;;;;;;;19.98;43.04;101441.65;106677;1288;60147;-80
2023/11/07 07:26:58;;;;;;;18.40;6.60;;;;;;;19.97;43.09;101445.79;106708;1283;58538;-80
2023/11/07 07:29:27;;;;;;;14.00;5.80;;;;;;;19.96;42.81;101445.67;106580;1283;58253;-80
2023/11/07 07:31:53;;;;;;;15.10;5.90;;;;;;;19.96;42.62;101448.21;106841;1283;60105;-80
2023/11/07 07:34:18;;;;;;;16.60;6.40;;;;;;;19.94;42.50;101450.23;106079;1288;60122;-80
2023/11/07 07:36:47;;;;;;;17.00;6.50;;;;;;;19.93;42.47;101456.19;105511;1289;60483;-80
2023/11/07 07:39:27;;;;;;;13.40;6.90;;;;;;;19.94;42.34;101460.09;105156;1288;73806;-80
2023/11/07 07:42:00;;;;;;;12.00;6.10;;;;;;;19.92;42.25;101457.48;105350;1288;60439;-80
2023/11/07 07:44:32;;;;;;;20.00;7.10;;;;;;;19.92;42.25;101458.58;105155;1287;60469;-81
2023/11/07 07:46:58;;;;;;;20.20;7.10;;;;;;;19.91;42.24;101456.46;105148;1284;72350;-81
2023/11/07 07:49:25;;;;;;;11.30;6.40;;;;;;;19.91;42.03;101459.31;105245;1287;60521;-81
2023/11/07 07:51:53;;;;;;;19.00;7.20;;;;;;;19.91;42.05;101462.75;106220;1283;58312;-81
2023/11/07 07:54:22;;;;;;;20.60;8.20;;;;;;;19.89;42.03;101459.63;105416;1283;61172;-83
2023/11/07 07:56:49;;;;;;;19.80;7.80;;;;;;;19.82;41.96;101460.36;105481;1288;72532;-82
2023/11/07 07:59:15;;;;;;;23.90;7.30;;;;;;;19.76;41.96;101461.95;105512;1283;73795;-81
2023/11/07 08:01:41;;;;;;;18.80;7.80;;;;;;;19.72;42.05;101458.23;105859;1285;60419;-82
2023/11/07 08:04:06;;;;;;;24.80;8.10;;;;;;;19.71;42.08;101453.48;105565;1289;59290;-81
2023/11/07 08:06:32;;;;;;;21.40;7.00;;;;;;;19.68;42.16;101457.05;105466;1285;59352;-81
2023/11/07 08:08:59;;;;;;;19.10;7.00;;;;;;;19.69;42.35;101458.58;105358;1288;62690;-82
2023/11/07 08:11:25;;;;;;;14.60;7.00;;;;;;;19.70;42.46;101453.70;105522;1287;60491;-81
2023/11/07 08:13:51;;;;;;;16.30;7.20;;;;;;;19.72;42.45;101453.20;105425;1283;60665;-82
2023/11/07 08:16:17;;;;;;;13.20;6.30;;;;;;;19.74;42.41;101450.80;105476;1290;60303;-82
2023/11/07 08:18:43;;;;;;;17.90;7.20;;;;;;;19.76;42.24;101451.39;105466;1284;58199;-82
2023/11/07 08:21:08;;;;;;;16.60;6.00;;;;;;;19.79;42.40;101455.53;105196;1289;74553;-81
2023/11/07 08:23:34;;;;;;;13.90;5.00;;;;;;;19.80;42.45;101449.74;105169;1283;60447;-82
2023/11/07 08:26:00;;;;;;;17.30;5.50;;;;;;;19.83;42.62;101447.12;105142;1288;60441;-81
2023/11/07 08:28:28;;;;;;;13.70;5.80;;;;;;;19.85;42.72;101442.55;104967;1283;273537;-81
2023/11/07 08:30:54;;;;;;;14.60;5.90;;;;;;;19.86;42.77;101441.38;106521;1287;60444;-82
2023/11/07 08:33:19;;;;;;;19.60;5.90;;;;;;;19.87;42.94;101437.92;106396;1283;58754;-81
2023/11/07 08:35:46;;;;;;;17.20;6.00;;;;;;;19.89;42.95;101439.81;106514;1283;58201;-82
2023/11/07 08:38:12;;;;;;;18.50;6.10;;;;;;;19.91;43.18;101448.10;106670;1284;57998;-82
2023/11/07 08:40:38;;;;;;;15.90;6.30;;;;;;;19.92;43.16;101450.35;106715;1283;58250;-82
2023/11/07 08:43:03;;;;;;;13.40;6.30;;;;;;;19.93;43.15;101448.51;106649;1283;58114;-82
2023/11/07 08:45:31;;;;;;;15.80;6.20;;;;;;;19.94;43.19;101445.59;106669;1285;58039;-82
2023/11/07 08:47:57;;;;;;;19.50;6.30;;;;;;;19.96;43.36;101442.48;106659;1285;60126;-82
2023/11/07 08:50:23;;;;;;;14.50;6.20;;;;;;;19.97;43.12;101441.72;106561;1288;58102;-82
2023/11/07 08:52:52;;;;;;;19.10;7.00;;;;;;;19.97;43.13;101442.06;106490;1283;57949;-82
2023/11/07 08:55:18;;;;;;;26.80;6.80;;;;;;;19.93;42.95;101437.65;106602;1283;61028;-81
2023/11/07 08:57:51;;;;;;;18.20;6.60;;;;;;;19.82;42.81;101439.49;106532;1283;58700;-81
2023/11/07 09:00:23;;;;;;;20.00;7.00;;;;;;;19.72;42.49;101428.91;106524;1284;73609;-81
2023/11/07 09:02:49;;;;;;;23.60;6.70;;;;;;;19.69;42.78;101428.40;106343;1285;73370;-81
2023/11/07 09:05:14;;;;;;;20.30;6.60;;;;;;;19.70;43.05;101428.67;106272;1285;58416;-82
2023/11/07 09:07:40;;;;;;;25.00;6.40;;;;;;;19.75;43.15;101428.06;106268;1284;57821;-81
2023/11/07 09:10:06;;;;;;;16.20;5.80;;;;;;;19.78;43.08;101428.61;105635;1285;60473;-81
2023/11/07 09:12:32;;;;;;;19.90;6.30;;;;;;;19.81;43.20;101425.79;105431;1285;62531;-81
2023/11/07 09:14:59;;;;;;;23.80;6.20;;;;;;;19.82;43.09;101425.05;105330;1284;60592;-81
2023/11/07 09:17:24;;;;;;;16.70;6.10;;;;;;;19.84;43.08;101423.47;105297;1285;59301;-81
2023/11/07 09:19:50;;;;;;;20.10;6.30;;;;;;;19.86;43.15;101419.81;105217;1288;60584;-81
2023/11/07 09:22:16;;;;;;;20.40;6.40;;;;;;;19.88;43.10;101423.24;105295;1287;59294;-81
2023/11/07 09:24:41;;;;;;;20.80;6.10;;;;;;;19.90;43.00;101424.58;105410;1285;60446;-81
2023/11/07 09:27:07;;;;;;;17.90;6.80;;;;;;;19.91;43.08;101420.73;105814;1283;59411;-82
2023/11/07 09:29:40;;;;;;;16.40;6.00;;;;;;;19.92;42.95;101416.94;105647;1287;58920;-81
2023/11/07 09:32:06;;;;;;;19.40;6.60;;;;;;;19.93;42.97;101415.27;105546;1283;72114;-81
2023/11/07 09:34:31;;;;;;;18.50;6.70;;;;;;;19.94;42.91;101418.79;105381;1285;60465;-81
2023/11/07 09:37:01;;;;;;;20.40;6.80;;;;;;;19.95;42.95;101416.95;105723;1285;60063;-81
2023/11/07 09:39:26;;;;;;;17.20;7.00;;;;;;;19.97;42.77;101411.15;106483;1285;61001;-81
2023/11/07 09:41:52;;;;;;;16.50;6.90;;;;;;;19.97;42.83;101413.07;105710;1283;60475;-81
2023/11/07 09:44:18;;;;;;;21.30;6.70;;;;;;;19.98;42.60;101406.42;105741;1285;58829;-81
2023/11/07 09:46:44;;;;;;;23.90;7.50;;;;;;;19.99;42.52;101407.80;105677;1283;60489;-81
2023/11/07 09:49:12;;;;;;;21.30;7.50;;;;;;;19.99;42.58;101405.67;105850;1284;58785;-81
2023/11/07 09:51:43;;;;;;;36.10;10.90;;;;;;;19.98;42.53;101398.76;105808;1285;72430;-84
2023/11/07 09:54:09;;;;;;;32.00;8.50;;;;;;;19.94;42.57;101396.46;105826;1283;73822;-82
2023/11/07 09:56:39;;;;;;;28.30;8.00;;;;;;;19.97;42.67;101396.50;105882;1284;62462;-83
2023/11/07 09:59:11;;;;;;;26.40;7.40;;;;;;;19.97;42.75;101388.24;105863;1285;60411;-82
2023/11/07 10:01:37;;;;;;;22.80;7.30;;;;;;;19.99;42.79;101387.24;105766;1283;72648;-82
2023/11/07 10:04:03;;;;;;;24.40;6.60;;;;;;;19.93;42.50;101382.60;105547;1288;72594;-82
2023/11/07 10:06:29;;;;;;;20.40;6.50;;;;;;;19.80;42.22;101381.90;105939;1283;60493;-81
2023/11/07 10:08:55;;;;;;;22.80;6.90;;;;;;;19.71;42.17;101375.44;105905;1283;59908;-82
2023/11/07 10:11:20;;;;;;;25.60;6.40;;;;;;;19.64;42.06;101368.15;105850;1287;60488;-81
2023/11/07 10:14:05;;;;;;;20.10;6.90;;;;;;;19.63;42.28;101360.02;105937;1284;59076;-81
2023/11/07 10:16:39;;;;;;;24.60;6.70;;;;;;;19.68;42.23;101354.85;106034;1282;59664;-80
2023/11/07 10:19:07;;;;;;;24.20;6.10;;;;;;;19.74;42.41;101350.98;105876;1283;60393;-81
2023/11/07 10:21:33;;;;;;;23.00;6.40;;;;;;;19.78;42.44;101350.20;105892;1283;72336;-80
2023/11/07 10:23:59;;;;;;;20.80;6.10;;;;;;;19.83;42.65;101344.41;106023;1286;58830;-82
2023/11/07 10:26:25;;;;;;;22.60;6.30;;;;;;;19.88;42.70;101335.92;105762;1283;60473;-80
2023/11/07 10:29:05;;;;;;;31.60;6.70;;;;;;;19.92;42.85;101331.03;105464;1283;60331;-82
2023/11/07 10:31:30;;;;;;;20.20;6.40;;;;;;;19.95;43.07;101322.27;105412;1283;73581;-81
2023/11/07 10:34:11;;;;;;;16.30;5.20;;;;;;;19.96;43.10;101320.78;105516;1283;60553;-80
2023/11/07 10:36:41;;;;;;;20.60;5.60;;;;;;;19.97;43.10;101316.98;106286;1283;59891;-81
2023/11/07 10:39:17;;;;;;;26.50;5.50;;;;;;;19.99;43.00;101319.75;106499;1283;60198;-80
2023/11/07 10:41:47;;;;;;;13.30;4.30;;;;;;;19.95;42.57;101318.16;106641;1283;72338;-81
2023/11/07 10:44:25;;;;;;;13.60;5.20;;;;;;;19.92;42.48;101313.14;106474;1283;73647;-80
2023/11/07 10:46:52;;;;;;;17.80;4.70;;;;;;;19.96;42.63;101305.48;106618;1283;59037;-81
2023/11/07 10:49:18;;;;;;;19.60;5.20;;;;;;;19.98;42.72;101303.02;106377;1283;59792;-81
2023/11/07 10:51:44;;;;;;;18.90;5.10;;;;;;;20.03;42.91;101303.06;106376;1283;58968;-81
2023/11/07 10:54:10;;;;;;;16.20;4.50;;;;;;;20.12;43.17;101300.94;106485;1284;59159;-82
2023/11/07 10:56:40;;;;;;;19.50;5.00;;;;;;;20.18;43.26;101299.66;106611;1283;58692;-82
2023/11/07 10:59:11;;;;;;;19.80;4.90;;;;;;;20.20;43.14;101292.02;106356;1285;59102;-82
2023/11/07 11:01:38;;;;;;;20.70;4.90;;;;;;;20.20;43.10;101292.41;106475;1283;72253;-83
2023/11/07 11:04:08;;;;;;;13.70;3.70;;;;;;;20.21;42.90;101287.73;106378;1284;74648;-81
2023/11/07 11:06:34;;;;;;;12.20;4.40;;;;;;;20.19;42.50;101278.36;105222;1283;60815;-81
2023/11/07 11:09:06;;;;;;;22.20;4.00;;;;;;;20.17;42.30;101273.65;105146;1285;58450;-82
2023/11/07 11:11:33;;;;;;;21.20;4.40;;;;;;;20.17;42.09;101272.95;105468;1287;73382;-83
2023/11/07 11:14:03;;;;;;;17.20;4.00;;;;;;;20.15;41.90;101273.03;105670;1283;72708;-82